createdAt,value
2022-12-09T00:00:27.902Z,100601.34
2022-12-09T00:02:54.552Z,100596.94
2022-12-09T00:05:21.421Z,100598.47
2022-12-09T00:07:48.207Z,100599.91
2022-12-09T00:10:14.736Z,100600.72
2022-12-09T00:12:41.556Z,100594.38
2022-12-09T00:15:08.833Z,100596.88
2022-12-09T00:17:35.649Z,100597.59
2022-12-09T00:20:02.510Z,100589.25
2022-12-09T00:22:29.326Z,100593.16
2022-12-09T00:24:55.990Z,100594.56
2022-12-09T00:27:22.621Z,100603.00
2022-12-09T00:29:49.115Z,100594.19
2022-12-09T00:32:21.345Z,100593.53
2022-12-09T00:34:48.997Z,100595.78
2022-12-09T00:37:15.591Z,100581.63
2022-12-09T00:39:41.992Z,100595.34
2022-12-09T00:42:08.411Z,100598.41
2022-12-09T00:44:34.826Z,100587.19
2022-12-09T00:47:01.556Z,100595.66
2022-12-09T00:49:28.430Z,100596.72
2022-12-09T00:51:55.110Z,100599.22
2022-12-09T00:54:22.058Z,100601.47
2022-12-09T00:56:48.708Z,100598.16
2022-12-09T00:59:15.303Z,100593.59
2022-12-09T01:01:42.023Z,100586.63
2022-12-09T01:04:09.025Z,100601.34
2022-12-09T01:06:35.805Z,100605.06
2022-12-09T01:09:03.484Z,100596.34
2022-12-09T01:11:30.769Z,100601.72
2022-12-09T01:14:02.305Z,100603.66
2022-12-09T01:16:32.406Z,100603.91
2022-12-09T01:19:02.002Z,100601.13
2022-12-09T01:21:29.608Z,100603.75
2022-12-09T01:23:56.503Z,100596.16
2022-12-09T01:26:23.288Z,100609.72
2022-12-09T01:28:52.944Z,100601.47
2022-12-09T01:31:22.360Z,100586.75
2022-12-09T01:33:49.366Z,100596.03
2022-12-09T01:36:22.133Z,100617.69
2022-12-09T01:38:50.030Z,100610.88
2022-12-09T01:41:18.012Z,100612.94
2022-12-09T01:43:44.893Z,100613.78
2022-12-09T01:46:12.111Z,100609.59
2022-12-09T01:48:43.467Z,100609.50
2022-12-09T01:51:14.400Z,100596.16
2022-12-09T01:53:45.251Z,100607.75
2022-12-09T01:56:36.656Z,100608.06
2022-12-09T01:59:11.101Z,100599.75
2022-12-09T02:01:38.623Z,100607.63
2022-12-09T02:04:05.926Z,100598.91
2022-12-09T02:06:35.309Z,100589.50
2022-12-09T02:09:02.131Z,100593.09
2022-12-09T02:11:40.840Z,100599.03
2022-12-09T02:14:25.016Z,100593.94
2022-12-09T02:16:54.515Z,100593.22
2022-12-09T02:19:48.869Z,100599.19
2022-12-09T02:22:21.173Z,100601.94
2022-12-09T02:25:05.343Z,100603.00
2022-12-09T02:27:42.701Z,100581.56
2022-12-09T02:30:12.424Z,100593.88
2022-12-09T02:32:45.279Z,100590.41
2022-12-09T02:35:23.896Z,100583.88
2022-12-09T02:38:03.571Z,100587.75
2022-12-09T02:40:44.850Z,100575.25
2022-12-09T02:43:12.885Z,100580.63
2022-12-09T02:45:41.436Z,100574.22
2022-12-09T02:48:11.911Z,100575.75
2022-12-09T02:50:41.899Z,100564.25
2022-12-09T02:53:12.181Z,100569.22
2022-12-09T02:55:40.570Z,100564.09
2022-12-09T02:58:07.320Z,100575.75
2022-12-09T03:00:34.149Z,100570.06
2022-12-09T03:03:04.754Z,100570.09
2022-12-09T03:05:58.239Z,100579.31
2022-12-09T03:08:31.506Z,100572.81
2022-12-09T03:11:03.051Z,100576.22
2022-12-09T03:13:40.513Z,100575.16
2022-12-09T03:16:28.995Z,100566.44
2022-12-09T03:19:05.364Z,100569.91
2022-12-09T03:21:35.454Z,100568.66
2022-12-09T03:24:02.673Z,100567.66
2022-12-09T03:26:32.268Z,100563.44
2022-12-09T03:29:03.312Z,100567.63
2022-12-09T03:31:32.036Z,100566.66
2022-12-09T03:34:02.189Z,100569.16
2022-12-09T03:36:35.315Z,100562.63
2022-12-09T03:39:06.066Z,100548.66
2022-12-09T03:41:33.415Z,100551.16
2022-12-09T03:44:13.946Z,100553.66
2022-12-09T03:46:41.033Z,100540.78
2022-12-09T03:49:08.024Z,100553.25
2022-12-09T03:51:56.827Z,100556.84
2022-12-09T03:54:39.907Z,100543.28
2022-12-09T03:57:17.005Z,100554.28
2022-12-09T03:59:51.457Z,100552.50
2022-12-09T04:02:18.473Z,100550.72
2022-12-09T04:04:45.171Z,100552.91
2022-12-09T04:07:11.690Z,100540.84
2022-12-09T04:09:38.147Z,100541.56
2022-12-09T04:12:04.914Z,100551.06
2022-12-09T04:14:31.797Z,100545.50
2022-12-09T04:16:58.388Z,100553.16
2022-12-09T04:19:24.873Z,100556.03
2022-12-09T04:21:51.569Z,100548.84
2022-12-09T04:24:18.011Z,100547.91
2022-12-09T04:26:44.968Z,100555.53
2022-12-09T04:29:12.594Z,100550.41
2022-12-09T04:31:39.639Z,100553.16
2022-12-09T04:34:09.701Z,100546.63
2022-12-09T04:36:36.752Z,100545.38
2022-12-09T04:39:03.848Z,100547.34
2022-12-09T04:41:30.494Z,100546.50
2022-12-09T04:43:57.001Z,100536.53
2022-12-09T04:46:23.958Z,100544.00
2022-12-09T04:48:50.567Z,100535.41
2022-12-09T04:51:17.219Z,100530.88
2022-12-09T04:53:44.606Z,100534.56
2022-12-09T04:56:16.623Z,100532.97
2022-12-09T04:58:44.937Z,100537.13
2022-12-09T05:01:18.618Z,100538.34
2022-12-09T05:03:53.978Z,100533.06
2022-12-09T05:06:22.977Z,100535.53
2022-12-09T05:08:50.793Z,100526.25
2022-12-09T05:11:19.683Z,100527.34
2022-12-09T05:13:46.600Z,100524.16
2022-12-09T05:16:16.892Z,100535.50
2022-12-09T05:18:45.760Z,100531.44
2022-12-09T05:21:15.356Z,100538.34
2022-12-09T05:23:42.372Z,100531.44
2022-12-09T05:26:11.342Z,100535.38
2022-12-09T05:28:38.305Z,100527.28
2022-12-09T05:31:15.553Z,100525.44
2022-12-09T05:33:43.274Z,100528.41
2022-12-09T05:36:11.815Z,100523.06
2022-12-09T05:38:39.759Z,100532.16
2022-12-09T05:41:06.775Z,100529.41
2022-12-09T05:43:35.164Z,100530.38
2022-12-09T05:46:02.114Z,100516.09
2022-12-09T05:48:29.546Z,100521.59
2022-12-09T05:51:01.371Z,100527.81
2022-12-09T05:53:29.904Z,100536.44
2022-12-09T05:55:57.425Z,100532.53
2022-12-09T05:58:24.660Z,100527.22
2022-12-09T06:00:51.512Z,100534.50
2022-12-09T06:03:18.287Z,100529.91
2022-12-09T06:05:45.264Z,100536.81
2022-12-09T06:08:12.094Z,100511.72
2022-12-09T06:10:40.407Z,100535.28
2022-12-09T06:13:07.875Z,100541.53
2022-12-09T06:15:35.169Z,100526.28
2022-12-09T06:18:02.555Z,100530.09
2022-12-09T06:20:29.331Z,100513.94
2022-12-09T06:22:56.361Z,100520.16
2022-12-09T06:25:23.288Z,100513.94
2022-12-09T06:27:52.091Z,100510.31
2022-12-09T06:30:19.742Z,100514.03
2022-12-09T06:32:46.716Z,100526.97
2022-12-09T06:35:14.170Z,100524.13
2022-12-09T06:37:41.667Z,100526.16
2022-12-09T06:40:10.223Z,100531.19
2022-12-09T06:42:36.988Z,100524.13
2022-12-09T06:45:04.049Z,100527.84
2022-12-09T06:47:30.643Z,100529.34
2022-12-09T06:50:02.615Z,100523.44
2022-12-09T06:52:32.917Z,100527.09
2022-12-09T06:54:59.451Z,100517.81
2022-12-09T06:57:26.227Z,100522.91
2022-12-09T06:59:53.100Z,100529.94
2022-12-09T07:02:19.860Z,100523.13
2022-12-09T07:04:47.004Z,100531.41
2022-12-09T07:07:15.143Z,100526.72
2022-12-09T07:09:41.995Z,100525.31
2022-12-09T07:12:08.607Z,100520.56
2022-12-09T07:14:36.920Z,100514.19
2022-12-09T07:17:04.587Z,100511.09
2022-12-09T07:19:32.157Z,100520.16
2022-12-09T07:21:59.201Z,100519.09
2022-12-09T07:24:26.738Z,100513.75
2022-12-09T07:26:53.278Z,100526.16
2022-12-09T07:29:20.120Z,100527.75
2022-12-09T07:31:48.700Z,100525.97
2022-12-09T07:34:15.970Z,100532.03
2022-12-09T07:36:42.635Z,100522.34
2022-12-09T07:39:15.507Z,100527.97
2022-12-09T07:41:42.760Z,100520.47
2022-12-09T07:44:11.138Z,100513.09
2022-12-09T07:46:38.861Z,100531.66
2022-12-09T07:49:06.559Z,100536.66
2022-12-09T07:51:33.549Z,100532.97
2022-12-09T07:54:00.990Z,100540.03
2022-12-09T07:56:29.179Z,100548.69
2022-12-09T07:58:57.376Z,100536.16
2022-12-09T08:01:26.683Z,100537.00
2022-12-09T08:03:54.380Z,100535.31
2022-12-09T08:06:23.836Z,100542.47
2022-12-09T08:08:51.380Z,100543.13
2022-12-09T08:11:21.538Z,100543.47
2022-12-09T08:13:49.038Z,100540.03
2022-12-09T08:16:18.512Z,100544.06
2022-12-09T08:18:46.363Z,100552.31
2022-12-09T08:21:16.719Z,100561.59
2022-12-09T08:23:44.063Z,100555.41
2022-12-09T08:26:12.041Z,100556.22
2022-12-09T08:28:38.882Z,100556.94
2022-12-09T08:31:17.689Z,100558.97
2022-12-09T08:33:44.836Z,100551.72
2022-12-09T08:36:14.510Z,100553.16
2022-12-09T08:38:42.062Z,100551.00
2022-12-09T08:41:18.232Z,100547.72
2022-12-09T08:43:46.425Z,100539.28
2022-12-09T08:46:13.896Z,100551.78
2022-12-09T08:48:42.480Z,100547.13
2022-12-09T08:51:11.512Z,100549.09
2022-12-09T08:53:38.425Z,100551.53
2022-12-09T08:56:13.143Z,100555.06
2022-12-09T08:58:41.374Z,100548.97
2022-12-09T09:01:14.003Z,100547.06
2022-12-09T09:03:40.891Z,100546.09
2022-12-09T09:06:10.841Z,100521.72
2022-12-09T09:08:39.127Z,100538.44
2022-12-09T09:11:18.227Z,100551.75
2022-12-09T09:13:47.151Z,100550.41
2022-12-09T09:16:16.209Z,100548.72
2022-12-09T09:18:43.793Z,100558.16
2022-12-09T09:21:12.458Z,100558.50
2022-12-09T09:23:40.190Z,100559.34
2022-12-09T09:26:16.580Z,100569.47
2022-12-09T09:28:43.377Z,100565.03
2022-12-09T09:31:12.760Z,100569.34
2022-12-09T09:33:40.773Z,100570.63
2022-12-09T09:36:11.527Z,100572.75
2022-12-09T09:38:38.739Z,100570.16
2022-12-09T09:41:24.749Z,100569.69
2022-12-09T09:43:52.503Z,100563.75
2022-12-09T09:46:37.302Z,100576.94
2022-12-09T09:49:07.876Z,100572.81
2022-12-09T09:51:37.282Z,100581.22
2022-12-09T09:54:08.475Z,100582.34
2022-12-09T09:56:41.122Z,100592.44
2022-12-09T09:59:25.361Z,100586.06
2022-12-09T10:02:05.814Z,100591.66
2022-12-09T10:05:03.456Z,100587.38
2022-12-09T10:07:44.110Z,100586.28
2022-12-09T10:10:25.023Z,100590.00
2022-12-09T10:13:18.216Z,100592.09
2022-12-09T10:16:06.516Z,100584.00
2022-12-09T10:18:39.863Z,100589.97
2022-12-09T10:21:17.342Z,100579.47
2022-12-09T10:23:45.845Z,100583.50
2022-12-09T10:26:32.200Z,100587.50
2022-12-09T10:29:11.473Z,100581.44
2022-12-09T10:31:38.251Z,100578.25
2022-12-09T10:34:05.479Z,100573.94
2022-12-09T10:36:36.005Z,100570.50
2022-12-09T10:39:05.448Z,100569.09
2022-12-09T10:42:18.202Z,100562.47
2022-12-09T10:44:46.412Z,100568.28
2022-12-09T10:47:27.155Z,100566.03
2022-12-09T10:49:55.522Z,100569.09
2022-12-09T10:52:31.910Z,100566.53
2022-12-09T10:54:58.847Z,100571.38
2022-12-09T10:57:29.050Z,100569.59
2022-12-09T11:00:32.709Z,100557.56
2022-12-09T11:03:01.498Z,100566.16
2022-12-09T11:05:32.065Z,100562.81
2022-12-09T11:07:59.774Z,100568.13
2022-12-09T11:10:29.647Z,100567.84
2022-12-09T11:13:04.395Z,100571.97
2022-12-09T11:15:44.983Z,100577.66
2022-12-09T11:18:25.541Z,100575.16
2022-12-09T11:21:01.813Z,100574.22
2022-12-09T11:23:29.512Z,100553.13
2022-12-09T11:26:00.304Z,100556.19
2022-12-09T11:28:30.343Z,100571.84
2022-12-09T11:33:55.480Z,100563.00
2022-12-09T11:36:29.793Z,100557.44
2022-12-09T11:39:14.737Z,100555.09
2022-12-09T11:42:06.208Z,100560.78
2022-12-09T11:44:36.291Z,100558.28
2022-12-09T11:47:07.708Z,100561.19
2022-12-09T11:49:55.685Z,100555.91
2022-12-09T11:52:26.712Z,100554.38
2022-12-09T11:54:57.313Z,100557.00
2022-12-09T11:57:45.063Z,100556.16
2022-12-09T12:00:19.143Z,100564.47
2022-12-09T12:02:58.099Z,100563.22
2022-12-09T12:05:45.606Z,100549.75
2022-12-09T12:08:19.799Z,100551.41
2022-12-09T12:10:53.330Z,100551.00
2022-12-09T12:13:40.343Z,100551.16
2022-12-09T12:16:21.982Z,100546.53
2022-12-09T12:19:22.489Z,100544.59
2022-12-09T12:22:25.962Z,100539.22
2022-12-09T12:24:52.362Z,100531.59
2022-12-09T12:27:46.654Z,100536.25
2022-12-09T12:30:15.827Z,100537.34
2022-12-09T12:33:59.861Z,100534.19
2022-12-09T12:36:07.359Z,100536.09
2022-12-09T12:38:55.094Z,100533.06
2022-12-09T12:41:33.665Z,100530.59
2022-12-09T12:44:31.990Z,100521.75
2022-12-09T12:47:25.550Z,100533.78
2022-12-09T12:50:14.116Z,100531.44
2022-12-09T12:52:56.404Z,100529.50
2022-12-09T12:55:46.039Z,100517.56
2022-12-09T12:58:43.615Z,100511.63
2022-12-09T13:01:22.434Z,100509.97
2022-12-09T13:04:20.551Z,100505.53
2022-12-09T13:07:26.381Z,100490.56
2022-12-09T13:10:02.942Z,100499.56
2022-12-09T13:12:53.813Z,100498.31
2022-12-09T13:15:32.113Z,100501.50
2022-12-09T13:18:39.831Z,100496.75
2022-12-09T13:21:07.673Z,100495.63
2022-12-09T13:23:58.761Z,100497.69
2022-12-09T13:26:53.411Z,100494.38
2022-12-09T13:29:53.870Z,100490.56
2022-12-09T13:32:44.693Z,100479.75
2022-12-09T13:35:23.913Z,100483.19
2022-12-09T13:37:52.303Z,100479.75
2022-12-09T13:40:21.524Z,100479.06
2022-12-09T13:43:01.347Z,100470.63
2022-12-09T13:45:30.417Z,100463.50
2022-12-09T13:48:27.080Z,100464.75
2022-12-09T13:50:57.668Z,100467.94
2022-12-09T13:53:29.512Z,100469.59
2022-12-09T13:56:17.216Z,100464.03
2022-12-09T13:58:55.640Z,100464.56
2022-12-09T14:01:33.034Z,100464.41
2022-12-09T14:04:33.695Z,100466.91
2022-12-09T14:07:16.331Z,100461.94
2022-12-09T14:09:46.888Z,100459.44
2022-12-09T14:12:25.368Z,100464.72
2022-12-09T14:15:24.209Z,100466.66
2022-12-09T14:17:50.611Z,100473.88
2022-12-09T14:20:22.160Z,100464.47
2022-12-09T14:23:06.751Z,100466.97
2022-12-09T14:25:35.763Z,100470.56
2022-12-09T14:28:20.983Z,100470.72
2022-12-09T14:30:59.755Z,100472.81
2022-12-09T14:33:31.757Z,100467.84
2022-12-09T14:36:13.484Z,100467.69
2022-12-09T14:39:15.679Z,100467.97
2022-12-09T14:41:48.843Z,100469.25
2022-12-09T14:44:34.092Z,100472.72
2022-12-09T14:47:21.041Z,100478.28
2022-12-09T14:49:49.840Z,100477.75
2022-12-09T14:52:25.399Z,100482.16
2022-12-09T14:54:54.515Z,100476.38
2022-12-09T14:57:25.955Z,100485.53
2022-12-09T14:59:55.062Z,100488.31
2022-12-09T15:02:25.066Z,100490.41
2022-12-09T15:04:53.765Z,100483.78
2022-12-09T15:07:25.007Z,100468.56
2022-12-09T15:09:56.425Z,100490.03
2022-12-09T15:12:32.460Z,100460.16
2022-12-09T15:15:04.124Z,100488.69
2022-12-09T15:17:36.399Z,100489.22
2022-12-09T15:20:04.585Z,100485.50
2022-12-09T15:22:32.734Z,100491.59
2022-12-09T15:24:59.856Z,100493.00
2022-12-09T15:27:27.394Z,100500.34
2022-12-09T15:29:54.668Z,100490.38
2022-12-09T15:32:30.392Z,100503.69
2022-12-09T15:35:16.372Z,100507.56
2022-12-09T15:37:43.136Z,100501.09
2022-12-09T15:40:14.028Z,100508.69
2022-12-09T15:42:44.192Z,100506.59
2022-12-09T15:45:19.340Z,100514.22
2022-12-09T15:47:54.759Z,100505.91
2022-12-09T15:50:28.987Z,100514.94
2022-12-09T15:53:16.182Z,100511.91
2022-12-09T15:55:50.462Z,100517.81
2022-12-09T15:58:22.644Z,100507.88
2022-12-09T16:00:51.249Z,100519.91
2022-12-09T16:03:25.512Z,100511.44
2022-12-09T16:06:04.380Z,100513.66
2022-12-09T16:08:33.266Z,100517.00
2022-12-09T16:10:59.759Z,100516.13
2022-12-09T16:13:26.598Z,100509.06
2022-12-09T16:15:58.515Z,100518.59
2022-12-09T16:18:46.023Z,100522.31
2022-12-09T16:21:15.206Z,100516.03
2022-12-09T16:23:53.688Z,100523.84
2022-12-09T16:26:29.350Z,100517.78
2022-12-09T16:28:59.513Z,100527.72
2022-12-09T16:31:26.452Z,100525.88
2022-12-09T16:33:53.020Z,100530.59
2022-12-09T16:36:31.774Z,100531.13
2022-12-09T16:39:07.519Z,100530.59
2022-12-09T16:41:55.878Z,100510.91
2022-12-09T16:44:43.517Z,100524.34
2022-12-09T16:47:16.318Z,100523.25
2022-12-09T16:49:46.111Z,100524.66
2022-12-09T16:52:20.488Z,100523.13
2022-12-09T16:54:48.851Z,100517.88
2022-12-09T16:57:17.650Z,100532.06
2022-12-09T16:59:45.351Z,100529.72
2022-12-09T17:02:30.362Z,100538.03
2022-12-09T17:04:56.881Z,100530.69
2022-12-09T17:07:23.302Z,100516.34
2022-12-09T17:09:49.681Z,100540.03
2022-12-09T17:12:16.149Z,100540.34
2022-12-09T17:14:42.656Z,100542.72
2022-12-09T17:17:10.384Z,100545.06
2022-12-09T17:19:37.005Z,100552.91
2022-12-09T17:22:03.598Z,100543.59
2022-12-09T17:24:29.972Z,100551.59
2022-12-09T17:26:56.430Z,100546.88
2022-12-09T17:29:22.845Z,100539.28
2022-12-09T17:31:51.673Z,100545.47
2022-12-09T17:34:18.702Z,100549.31
2022-12-09T17:36:45.339Z,100546.09
2022-12-09T17:39:12.800Z,100555.69
2022-12-09T17:41:39.474Z,100547.31
2022-12-09T17:44:05.867Z,100552.81
2022-12-09T17:46:32.318Z,100551.13
2022-12-09T17:49:02.258Z,100556.38
2022-12-09T17:51:34.064Z,100536.81
2022-12-09T17:54:02.278Z,100550.13
2022-12-09T17:56:28.708Z,100555.59
2022-12-09T17:59:02.754Z,100557.50
2022-12-09T18:01:29.480Z,100554.66
2022-12-09T18:04:06.213Z,100550.13
2022-12-09T18:06:35.300Z,100555.38
2022-12-09T18:09:03.733Z,100553.78
2022-12-09T18:11:30.228Z,100557.44
2022-12-09T18:13:57.166Z,100562.69
2022-12-09T18:16:23.820Z,100560.63
2022-12-09T18:18:50.545Z,100554.69
2022-12-09T18:21:19.719Z,100561.03
2022-12-09T18:23:46.392Z,100563.53
2022-12-09T18:26:15.778Z,100566.03
2022-12-09T18:28:42.401Z,100574.75
2022-12-09T18:31:11.724Z,100567.09
2022-12-09T18:33:39.241Z,100566.72
2022-12-09T18:36:12.472Z,100576.13
2022-12-09T18:38:40.079Z,100570.50
2022-12-09T18:41:33.567Z,100564.41
2022-12-09T18:44:06.201Z,100577.03
2022-12-09T18:46:36.498Z,100570.00
2022-12-09T18:49:10.638Z,100582.03
2022-12-09T18:51:38.827Z,100585.88
2022-12-09T18:54:06.630Z,100586.13
2022-12-09T18:56:33.743Z,100580.75
2022-12-09T18:59:09.071Z,100588.44
2022-12-09T19:01:39.619Z,100581.50
2022-12-09T19:04:08.885Z,100585.09
2022-12-09T19:06:37.829Z,100577.81
2022-12-09T19:09:16.634Z,100578.63
2022-12-09T19:11:44.810Z,100587.06
2022-12-09T19:14:11.649Z,100585.44
2022-12-09T19:16:38.129Z,100582.81
2022-12-09T19:19:09.658Z,100582.22
2022-12-09T19:21:37.513Z,100580.22
2022-12-09T19:24:04.087Z,100587.22
2022-12-09T19:26:32.782Z,100589.69
2022-12-09T19:29:04.701Z,100598.28
2022-12-09T19:31:45.385Z,100601.75
2022-12-09T19:34:16.761Z,100606.03
2022-12-09T19:36:44.695Z,100602.78
2022-12-09T19:39:12.411Z,100600.34
2022-12-09T19:41:40.379Z,100611.41
2022-12-09T19:44:09.729Z,100603.28
2022-12-09T19:46:38.489Z,100593.31
2022-12-09T19:49:05.305Z,100591.50
2022-12-09T19:51:32.240Z,100589.22
2022-12-09T19:54:00.478Z,100587.38
2022-12-09T19:56:28.513Z,100590.72
2022-12-09T19:58:55.232Z,100596.81
2022-12-09T20:01:23.249Z,100595.97
2022-12-09T20:03:52.496Z,100593.66
2022-12-09T20:06:20.250Z,100595.63
2022-12-09T20:08:48.052Z,100592.16
2022-12-09T20:11:21.010Z,100599.06
2022-12-09T20:13:48.034Z,100596.28
2022-12-09T20:16:17.322Z,100587.59
2022-12-09T20:18:45.356Z,100583.56
2022-12-09T20:21:13.456Z,100594.19
2022-12-09T20:23:42.059Z,100593.94
2022-12-09T20:26:14.409Z,100582.84
2022-12-09T20:28:42.573Z,100585.78
2022-12-09T20:31:12.557Z,100586.50
2022-12-09T20:33:39.331Z,100594.13
2022-12-09T20:36:10.375Z,100593.75
2022-12-09T20:38:37.990Z,100579.34
2022-12-09T20:41:11.941Z,100601.09
2022-12-09T20:43:39.705Z,100601.34
2022-12-09T20:46:11.262Z,100609.94
2022-12-09T20:48:39.042Z,100613.66
2022-12-09T20:51:15.616Z,100610.75
2022-12-09T20:53:43.951Z,100610.66
2022-12-09T20:56:11.509Z,100612.72
2022-12-09T20:58:39.428Z,100609.50
2022-12-09T21:01:11.072Z,100597.28
2022-12-09T21:03:37.604Z,100613.91
2022-12-09T21:06:05.149Z,100613.22
2022-12-09T21:08:32.177Z,100601.31
2022-12-09T21:11:21.321Z,100606.44
2022-12-09T21:13:50.733Z,100609.06
2022-12-09T21:16:23.438Z,100606.66
2022-12-09T21:18:52.373Z,100611.09
2022-12-09T21:21:20.430Z,100611.47
2022-12-09T21:23:50.132Z,100614.00
2022-12-09T21:26:18.441Z,100614.81
2022-12-09T21:28:46.530Z,100613.16
2022-12-09T21:31:23.827Z,100618.00
2022-12-09T21:33:51.456Z,100615.38
2022-12-09T21:36:22.026Z,100620.38
2022-12-09T21:38:48.396Z,100593.63
2022-12-09T21:41:17.877Z,100618.16
2022-12-09T21:43:45.212Z,100618.16
2022-12-09T21:46:18.935Z,100615.25
2022-12-09T21:48:51.813Z,100615.97
2022-12-09T21:51:20.910Z,100627.31
2022-12-09T21:53:48.717Z,100623.13
2022-12-09T21:56:20.431Z,100624.72
2022-12-09T21:58:49.638Z,100628.59
2022-12-09T22:01:23.006Z,100613.91
2022-12-09T22:03:49.791Z,100630.50
2022-12-09T22:06:17.257Z,100625.25
2022-12-09T22:08:44.598Z,100624.66
2022-12-09T22:11:14.066Z,100622.88
2022-12-09T22:13:41.466Z,100623.03
2022-12-09T22:16:09.753Z,100635.75
2022-12-09T22:18:36.480Z,100631.13
2022-12-09T22:21:25.058Z,100633.75
2022-12-09T22:23:54.601Z,100632.59
2022-12-09T22:26:21.650Z,100641.88
2022-12-09T22:28:48.531Z,100643.19
2022-12-09T22:31:22.719Z,100645.34
2022-12-09T22:33:51.358Z,100645.22
2022-12-09T22:36:18.046Z,100643.22
2022-12-09T22:38:44.880Z,100650.13
2022-12-09T22:41:13.833Z,100652.06
2022-12-09T22:43:41.230Z,100651.09
2022-12-09T22:46:12.522Z,100651.78
2022-12-09T22:48:40.316Z,100657.88
2022-12-09T22:51:09.705Z,100647.91
2022-12-09T22:53:36.680Z,100650.28
2022-12-09T22:56:04.024Z,100654.88
2022-12-09T22:58:30.460Z,100638.09
2022-12-09T23:00:57.296Z,100646.41
2022-12-09T23:03:23.765Z,100627.00
2022-12-09T23:05:50.730Z,100649.75
2022-12-09T23:08:17.324Z,100647.53
2022-12-09T23:10:44.089Z,100656.09
2022-12-09T23:13:10.901Z,100650.28
2022-12-09T23:15:37.515Z,100665.09
2022-12-09T23:18:04.066Z,100664.25
2022-12-09T23:20:30.597Z,100657.34
2022-12-09T23:22:57.380Z,100664.72
2022-12-09T23:25:23.735Z,100662.41
2022-12-09T23:27:50.198Z,100657.75
2022-12-09T23:30:16.659Z,100670.00
2022-12-09T23:32:43.041Z,100659.78
2022-12-09T23:35:09.669Z,100668.09
2022-12-09T23:37:36.101Z,100662.31
2022-12-09T23:40:02.554Z,100665.66
2022-12-09T23:42:29.018Z,100664.97
2022-12-09T23:44:55.369Z,100673.22
2022-12-09T23:47:21.843Z,100666.88
2022-12-09T23:49:48.250Z,100672.84
2022-12-09T23:52:14.675Z,100676.44
2022-12-09T23:54:41.074Z,100677.97
2022-12-09T23:57:07.878Z,100665.22
2022-12-09T23:59:34.269Z,100669.88
